Briefing drone pour Guilherand-granges

Rechercher une autre localisation

Conditions de vol :


Nous sommes le : Mercredi 07 décembre 2022
Il est 19:23 UTC (20:23 LT)

Lever de soleil : 06:38 UTC (07:38 LT)
Coucher de soleil : 16:25 UTC (17:25 LT)

Météo

L'essentiel des conditions de vol

VIGILANCE MÉTÉO FRANCE - Ardèche (07)
Pas de vigilances particulieres
METAR de LFLU
LFLU 071800Z AUTO 01012KT 9999 OVC020 04/01 Q1014

Date d'émission: 07/12/2022
Heure d'émission: 18:00 UTC
Vent: 010° pour 12 KT (22 km/h)
Visibilité horizontale: > 10 km
Plafond :
- Couvert à 2000ft (610m)
Température: 4 °C
Point de rosée: 1 °C
Humidité: 81%
Pression (QNH): 1014 hPa
Prévision 24h pour Valence (1 km)
Vent : 189° pour 2 KT (6 km/h)
Temperature Maxi: 5 °C
Temperature Min: 5 °C
Humidité : 71%
Condition : Couvert



Warning: count(): Parameter must be an array or an object that implements Countable in /homepages/6/d509196549/htdocs/droneoxygene/briefing.php on line 743
WEBCAM POUR GUILHERAND-GRANGES

Réglementation

Voler en sécurité

CARTES AERONAUTIQUE 1/500.000
CARTE AZBA (Reseau basse altitude)
CARTES VAC (LFLU)
SUP AIP




Chargement des AIP...
NOTAM (GUILHERAND-GRANGES + Terrain à proximité / FIR )




Chargement des NOTAMS...
CONTACT PREFECTURE 07


Avertissement : Les données mises à disposition sont indicatives. Oxygène Drone ne pourra être tenu responsable de dégâts causés aux biens et aux personnes.